Time;durP1;ratioP1;P1;durP2;ratioP2;P2;SDS_P1;SDS_P2;PMS_P1;PMS_P2;Temp;Humidity;BMP_temperature;BMP_pressure;BME280_temperature;BME280_humidity;BME280_pressure;Samples;Min_cycle;Max_cycle;Signal;HPM_P1;HPM_P2
2022/09/20 00:00:32;;;;;;;22.40;2.88;;;;;;;-145.01;100.00;64805.59;5051820;28;20122;-58
2022/09/20 00:02:57;;;;;;;21.13;2.60;;;;;;;-145.01;100.00;64805.59;5057397;28;20478;-55
2022/09/20 00:05:22;;;;;;;10.07;2.65;;;;;;;-145.01;100.00;64805.59;5051101;28;20518;-54
2022/09/20 00:07:48;;;;;;;15.48;2.42;;;;;;;-145.01;100.00;64805.59;5054684;28;20032;-55
2022/09/20 00:10:13;;;;;;;15.20;2.50;;;;;;;-145.01;100.00;64805.59;5056321;28;20036;-55
2022/09/20 00:12:39;;;;;;;15.25;3.33;;;;;;;-145.01;100.00;64805.59;5051545;28;20047;-53
2022/09/20 00:15:05;;;;;;;15.10;2.58;;;;;;;-145.01;100.00;64805.59;5051782;28;20029;-51
2022/09/20 00:17:30;;;;;;;9.68;2.30;;;;;;;-145.01;100.00;64805.59;5055674;28;20025;-54
2022/09/20 00:19:56;;;;;;;19.45;2.63;;;;;;;-145.01;100.00;64805.59;5056483;28;20024;-54
2022/09/20 00:22:21;;;;;;;14.38;2.72;;;;;;;-145.01;100.00;64805.59;5051341;28;20403;-53
2022/09/20 00:24:46;;;;;;;11.40;2.60;;;;;;;-145.01;100.00;64805.59;5056988;28;20020;-56
2022/09/20 00:27:12;;;;;;;12.60;2.63;;;;;;;-145.01;100.00;64805.59;5060994;28;20028;-56
2022/09/20 00:29:38;;;;;;;20.00;3.08;;;;;;;-145.01;100.00;64805.59;5054778;28;20104;-55
2022/09/20 00:32:03;;;;;;;19.02;3.28;;;;;;;-145.01;100.00;64805.59;5054362;28;20029;-55
2022/09/20 00:37:12;;;;;;;16.23;2.78;;;;;;;-145.01;100.00;64805.59;5056852;28;20399;-55
2022/09/20 00:39:38;;;;;;;14.20;2.90;;;;;;;-145.01;100.00;64805.59;5056435;28;20024;-54
2022/09/20 00:42:03;;;;;;;10.57;2.40;;;;;;;-145.01;100.00;64805.59;5055183;28;20067;-54
2022/09/20 00:44:44;;;;;;;19.30;3.40;;;;;;;-145.01;100.00;64805.59;5055561;28;20370;-56
2022/09/20 00:47:36;;;;;;;20.38;3.00;;;;;;;-145.01;100.00;64805.59;5055908;28;20033;-55
2022/09/20 00:50:17;;;;;;;10.90;3.30;;;;;;;-145.01;100.00;64805.59;5045779;28;20036;-56
2022/09/20 00:52:44;;;;;;;14.73;3.50;;;;;;;-145.01;100.00;64805.59;5059263;28;20029;-55
2022/09/20 00:55:09;;;;;;;11.10;2.83;;;;;;;-145.01;100.00;64805.59;5066170;28;20112;-54
2022/09/20 00:57:35;;;;;;;16.15;3.38;;;;;;;-145.01;100.00;64805.59;5050481;28;20359;-54
2022/09/20 01:00:03;;;;;;;13.48;3.63;;;;;;;-145.01;100.00;64805.59;5082387;28;20596;-55
2022/09/20 01:02:29;;;;;;;14.77;3.60;;;;;;;-145.01;100.00;64805.59;5060469;28;20025;-56
2022/09/20 01:04:56;;;;;;;13.75;3.83;;;;;;;-145.01;100.00;64805.59;5053743;28;20083;-56
2022/09/20 01:07:21;;;;;;;14.88;3.30;;;;;;;-145.01;100.00;64805.59;5032622;28;20040;-56
2022/09/20 01:09:47;;;;;;;14.75;3.65;;;;;;;-145.01;100.00;64805.59;5057998;28;20097;-55
2022/09/20 01:12:17;;;;;;;17.30;4.18;;;;;;;-145.01;100.00;64805.59;5053392;28;20152;-55
2022/09/20 01:14:42;;;;;;;12.15;3.88;;;;;;;-145.01;100.00;64805.59;5049008;28;20029;-54
2022/09/20 01:17:08;;;;;;;13.15;3.95;;;;;;;-145.01;100.00;64805.59;5053373;28;20070;-54
2022/09/20 01:19:37;;;;;;;21.77;3.63;;;;;;;-145.01;100.00;64805.59;5051783;28;20041;-53
2022/09/20 01:22:04;;;;;;;26.75;4.50;;;;;;;-145.01;100.00;64805.59;5057462;28;20028;-52
2022/09/20 01:24:38;;;;;;;18.05;4.25;;;;;;;-145.01;100.00;64805.59;5056721;28;20127;-53
2022/09/20 01:27:33;;;;;;;19.88;4.03;;;;;;;-145.01;100.00;64805.59;5060870;28;20515;-53
2022/09/20 01:30:02;;;;;;;14.65;4.20;;;;;;;-145.01;100.00;64805.59;5034848;28;20534;-53
2022/09/20 01:32:34;;;;;;;17.67;4.30;;;;;;;-145.01;100.00;64805.59;5055791;28;20544;-54
2022/09/20 01:35:00;;;;;;;12.30;4.88;;;;;;;-145.01;100.00;64805.59;5048494;28;20422;-53
2022/09/20 01:37:48;;;;;;;15.85;4.85;;;;;;;-145.01;100.00;64805.59;5044000;28;20025;-53
2022/09/20 01:40:19;;;;;;;20.08;4.95;;;;;;;-145.01;100.00;64805.59;5046868;28;20401;-54
2022/09/20 01:42:45;;;;;;;;;;;;;;;-145.01;100.00;64805.59;5052902;28;20103;-54
2022/09/20 01:45:20;;;;;;;20.58;4.97;;;;;;;-145.01;100.00;64805.59;5049984;28;19920;-54
2022/09/20 01:48:09;;;;;;;19.95;4.80;;;;;;;-145.01;100.00;64805.59;5049261;28;20029;-53
2022/09/20 01:50:48;;;;;;;15.27;5.65;;;;;;;-145.01;100.00;64805.59;5036210;28;20079;-53
2022/09/20 01:53:55;;;;;;;18.85;5.97;;;;;;;-145.01;100.00;64805.59;5054666;28;20025;-54
2022/09/20 01:56:49;;;;;;;16.38;5.75;;;;;;;-145.01;100.00;64805.59;5025275;28;20429;-53
2022/09/20 01:59:33;;;;;;;17.70;5.97;;;;;;;-145.01;100.00;64805.59;5023841;28;20053;-53
2022/09/20 02:02:08;;;;;;;19.10;6.85;;;;;;;-145.01;100.00;64805.59;5051065;28;20554;-54
2022/09/20 02:04:54;;;;;;;15.35;5.60;;;;;;;-145.01;100.00;64805.59;5047946;28;20041;-53
2022/09/20 02:07:41;;;;;;;20.92;6.70;;;;;;;-145.01;100.00;64805.59;5056499;28;20497;-53
2022/09/20 02:10:52;;;;;;;23.70;5.88;;;;;;;-145.01;100.00;64805.59;5056914;28;20029;-53
2022/09/20 02:13:44;;;;;;;26.60;7.10;;;;;;;-145.01;100.00;64805.59;5049495;28;20021;-53
2022/09/20 02:16:18;;;;;;;24.13;7.32;;;;;;;-145.01;100.00;64805.59;5048639;28;20029;-54
2022/09/20 02:19:05;;;;;;;17.65;6.28;;;;;;;-145.01;100.00;64805.59;5049003;28;20458;-54
2022/09/20 02:21:39;;;;;;;27.35;7.97;;;;;;;-145.01;100.00;64805.59;5061077;28;20040;-54
2022/09/20 02:24:40;;;;;;;14.48;6.30;;;;;;;-145.01;100.00;64805.59;5055850;28;20472;-54
2022/09/20 02:27:34;;;;;;;;;;;;;;;-145.01;100.00;64805.59;5000653;28;20564;-53
2022/09/20 02:30:03;;;;;;;23.02;6.95;;;;;;;-145.01;100.00;64805.59;5045684;28;20325;-54
2022/09/20 02:32:32;;;;;;;23.17;6.82;;;;;;;-145.01;100.00;64805.59;5053997;28;20040;-55
2022/09/20 02:35:16;;;;;;;26.15;7.60;;;;;;;-145.01;100.00;64805.59;5048753;28;20029;-54
2022/09/20 02:38:05;;;;;;;18.95;7.88;;;;;;;-145.01;100.00;64805.59;5048162;28;20036;-52
2022/09/20 02:41:00;;;;;;;19.70;8.13;;;;;;;-145.01;100.00;64805.59;5047591;28;20039;-54
2022/09/20 02:43:50;;;;;;;32.92;8.15;;;;;;;-145.01;100.00;64805.59;5045761;28;20045;-54
2022/09/20 02:46:27;;;;;;;15.65;7.55;;;;;;;-145.01;100.00;64805.59;5048138;28;20033;-54
2022/09/20 02:49:14;;;;;;;18.83;7.75;;;;;;;-145.01;100.00;64805.59;5057177;28;20340;-53
2022/09/20 02:51:40;;;;;;;14.73;6.97;;;;;;;-145.01;100.00;64805.59;5059463;28;20036;-52
2022/09/20 02:54:17;;;;;;;20.38;7.13;;;;;;;-145.01;100.00;64805.59;5054099;28;20383;-54
2022/09/20 02:57:04;;;;;;;16.58;7.25;;;;;;;-145.01;100.00;64805.59;5049367;28;20029;-54
2022/09/20 02:59:43;;;;;;;22.95;6.95;;;;;;;-145.01;100.00;64805.59;5049122;28;20095;-55
2022/09/20 03:02:22;;;;;;;21.30;7.07;;;;;;;-145.01;100.00;64805.59;5096972;28;20490;-54
2022/09/20 03:05:03;;;;;;;15.93;7.03;;;;;;;-145.01;100.00;64805.59;5051728;28;20357;-54
2022/09/20 03:07:47;;;;;;;19.35;7.32;;;;;;;-145.01;100.00;64805.59;5057402;28;20040;-55
2022/09/20 03:10:51;;;;;;;26.40;7.32;;;;;;;-145.01;100.00;64805.59;5059321;28;20029;-54
2022/09/20 03:13:44;;;;;;;16.30;6.75;;;;;;;-145.01;100.00;64805.59;5053023;28;20120;-54
2022/09/20 03:16:33;;;;;;;25.92;6.88;;;;;;;-145.01;100.00;64805.59;5053112;28;20040;-55
2022/09/20 03:19:14;;;;;;;19.10;7.43;;;;;;;-145.01;100.00;64805.59;5057031;28;20494;-54
2022/09/20 03:22:14;;;;;;;19.92;7.43;;;;;;;-145.01;100.00;64805.59;5059069;28;20382;-54
2022/09/20 03:24:40;;;;;;;19.88;7.88;;;;;;;-145.01;100.00;64805.59;5058853;28;20090;-55
2022/09/20 03:27:17;;;;;;;18.02;6.80;;;;;;;-145.01;100.00;64805.59;5057841;28;20037;-54
2022/09/20 03:29:51;;;;;;;18.33;6.88;;;;;;;-145.01;100.00;64805.59;5051487;28;20107;-54
2022/09/20 03:32:21;;;;;;;16.63;7.65;;;;;;;-145.01;100.00;64805.59;5052691;28;20506;-55
2022/09/20 03:35:18;;;;;;;22.73;8.38;;;;;;;-145.01;100.00;64805.59;5057177;28;20032;-55
2022/09/20 03:37:46;;;;;;;24.08;8.38;;;;;;;-145.01;100.00;64805.59;5058508;28;20028;-54
2022/09/20 03:40:46;;;;;;;23.05;8.20;;;;;;;-145.01;100.00;64805.59;5058295;28;20116;-54
2022/09/20 03:43:23;;;;;;;25.10;7.75;;;;;;;-145.01;100.00;64805.59;5052535;28;20025;-54
2022/09/20 03:45:55;;;;;;;21.02;8.50;;;;;;;-145.01;100.00;64805.59;5052168;28;20409;-54
2022/09/20 03:48:33;;;;;;;20.23;7.80;;;;;;;-145.01;100.00;64805.59;5062604;28;20167;-54
2022/09/20 03:51:20;;;;;;;28.42;8.88;;;;;;;-145.01;100.00;64805.59;5051350;28;20483;-54
2022/09/20 03:54:11;;;;;;;24.48;9.02;;;;;;;-145.01;100.00;64805.59;5057474;28;20028;-54
2022/09/20 03:56:45;;;;;;;24.73;8.63;;;;;;;-145.01;100.00;64805.59;5032242;28;20033;-54
2022/09/20 03:59:25;;;;;;;23.00;8.98;;;;;;;-145.01;100.00;64805.59;5055510;28;20033;-54
2022/09/20 04:02:03;;;;;;;31.15;9.18;;;;;;;-145.01;100.00;64805.59;5071079;28;20032;-54
2022/09/20 04:04:48;;;;;;;32.97;9.13;;;;;;;-145.01;100.00;64805.59;5056438;28;20047;-54
2022/09/20 04:07:37;;;;;;;28.13;8.60;;;;;;;-145.01;100.00;64805.59;5057548;28;20029;-54
2022/09/20 04:10:24;;;;;;;27.35;8.73;;;;;;;-145.01;100.00;64805.59;5067435;28;20112;-53
2022/09/20 04:13:27;;;;;;;26.10;8.13;;;;;;;-145.01;100.00;64805.59;5055100;28;20033;-55
2022/09/20 04:16:14;;;;;;;24.17;8.88;;;;;;;-145.01;100.00;64805.59;5052043;28;20415;-54
2022/09/20 04:18:57;;;;;;;18.33;8.52;;;;;;;-145.01;100.00;64805.59;5067789;28;20079;-54
2022/09/20 04:21:35;;;;;;;19.70;8.43;;;;;;;-145.01;100.00;64805.59;5036063;28;20043;-54
2022/09/20 04:24:41;;;;;;;32.75;9.50;;;;;;;-145.01;100.00;64805.59;5050684;28;20099;-54
2022/09/20 04:27:22;;;;;;;19.95;7.20;;;;;;;-145.01;100.00;64805.59;5048099;28;20041;-54
2022/09/20 04:30:18;;;;;;;28.45;8.70;;;;;;;-145.01;100.00;64805.59;5055317;28;20130;-55
2022/09/20 04:32:51;;;;;;;17.83;7.28;;;;;;;-145.01;100.00;64805.59;5058481;28;20044;-54
2022/09/20 04:38:28;;;;;;;18.23;7.43;;;;;;;-145.01;100.00;64805.59;5082308;28;20391;-53
2022/09/20 04:41:19;;;;;;;20.77;7.90;;;;;;;-145.01;100.00;64805.59;5054323;28;20020;-53
2022/09/20 04:44:23;;;;;;;19.52;7.68;;;;;;;-145.01;100.00;64805.59;5059159;28;20025;-54
2022/09/20 04:47:00;;;;;;;22.00;8.73;;;;;;;-145.01;100.00;64805.59;5056942;28;20487;-55
2022/09/20 04:49:32;;;;;;;23.38;8.57;;;;;;;-145.01;100.00;64805.59;5049291;28;20052;-54
2022/09/20 04:52:42;;;;;;;19.15;8.32;;;;;;;-145.01;100.00;64805.59;5051755;28;20016;-55
2022/09/20 04:55:45;;;;;;;19.75;7.05;;;;;;;-145.01;100.00;64805.59;5006779;28;20536;-53
2022/09/20 04:58:19;;;;;;;25.38;7.40;;;;;;;-145.01;100.00;64805.59;5055345;28;20033;-55
2022/09/20 05:00:59;;;;;;;15.02;6.97;;;;;;;-145.01;100.00;64805.59;5055565;28;20028;-54
2022/09/20 05:03:55;;;;;;;15.88;7.90;;;;;;;-145.01;100.00;64805.59;5057429;28;20033;-53
2022/09/20 05:06:40;;;;;;;17.50;7.50;;;;;;;-145.01;100.00;64805.59;5050307;28;20041;-53
2022/09/20 05:09:24;;;;;;;15.80;6.72;;;;;;;-145.01;100.00;64805.59;5050755;28;20094;-52
2022/09/20 05:12:33;;;;;;;18.42;6.93;;;;;;;-145.01;100.00;64805.59;5058274;28;20130;-53
2022/09/20 05:15:15;;;;;;;13.55;6.72;;;;;;;-145.01;100.00;64805.59;5055671;28;20135;-53
2022/09/20 05:18:19;;;;;;;17.98;6.57;;;;;;;-145.01;100.00;64805.59;5053848;28;20033;-53
2022/09/20 05:20:54;;;;;;;22.35;7.07;;;;;;;-145.01;100.00;64805.59;5049910;28;20028;-54
2022/09/20 05:23:25;;;;;;;17.35;6.18;;;;;;;-145.01;100.00;64805.59;5055920;28;20029;-56
2022/09/20 05:26:28;;;;;;;17.63;6.88;;;;;;;-145.01;100.00;64805.59;5054364;28;20029;-56
2022/09/20 05:29:11;;;;;;;17.90;7.32;;;;;;;-145.01;100.00;64805.59;5049147;28;20029;-52
2022/09/20 05:31:49;;;;;;;23.48;8.52;;;;;;;-145.01;100.00;64805.59;5056093;28;20033;-53
2022/09/20 05:34:41;;;;;;;19.90;7.35;;;;;;;-145.01;100.00;64805.59;5051550;28;20028;-54
2022/09/20 05:37:23;;;;;;;16.00;6.72;;;;;;;-145.01;100.00;64805.59;5053704;28;20035;-51
2022/09/20 05:39:53;;;;;;;15.55;7.63;;;;;;;-145.01;100.00;64805.59;5055413;28;20578;-56
2022/09/20 05:42:45;;;;;;;14.75;7.03;;;;;;;-145.01;100.00;64805.59;5066132;28;20029;-54
2022/09/20 05:45:46;;;;;;;11.68;5.50;;;;;;;-145.01;100.00;64805.59;5054382;28;20037;-54
2022/09/20 05:48:50;;;;;;;17.17;5.40;;;;;;;-145.01;100.00;64805.59;5057182;28;20036;-54
2022/09/20 05:51:46;;;;;;;15.85;4.70;;;;;;;-145.01;100.00;64805.59;5049006;28;20033;-54
2022/09/20 05:54:29;;;;;;;19.83;5.68;;;;;;;-145.01;100.00;64805.59;5056796;28;20569;-54
2022/09/20 05:57:10;;;;;;;13.10;5.38;;;;;;;-145.01;100.00;64805.59;5048161;28;20047;-55
2022/09/20 06:00:03;;;;;;;14.40;4.63;;;;;;;-145.01;100.00;64805.59;5049800;28;20020;-55
2022/09/20 06:03:06;;;;;;;14.20;5.10;;;;;;;-145.01;100.00;64805.59;5046218;28;20067;-55
2022/09/20 06:05:44;;;;;;;16.52;7.32;;;;;;;-145.01;100.00;64805.59;5049040;28;20134;-55
2022/09/20 06:08:25;;;;;;;15.18;8.18;;;;;;;-145.01;100.00;64805.59;5049345;28;20487;-54
2022/09/20 06:10:54;;;;;;;16.80;5.30;;;;;;;-145.01;100.00;64805.59;5056632;28;20033;-52
2022/09/20 06:13:38;;;;;;;12.48;5.65;;;;;;;-145.01;100.00;64805.59;5054398;28;20036;-53
2022/09/20 06:16:05;;;;;;;16.27;5.32;;;;;;;-145.01;100.00;64805.59;5053988;28;20498;-54
2022/09/20 06:18:38;;;;;;;10.88;4.22;;;;;;;-145.01;100.00;64805.59;5057948;28;20033;-55
2022/09/20 06:21:24;;;;;;;15.55;5.47;;;;;;;-145.01;100.00;64805.59;5051963;28;20113;-53
2022/09/20 06:23:51;;;;;;;17.27;5.47;;;;;;;-145.01;100.00;64805.59;5021502;28;20067;-54
2022/09/20 06:26:20;;;;;;;13.65;5.40;;;;;;;-145.01;100.00;64805.59;5084415;28;20055;-54
2022/09/20 06:28:49;;;;;;;13.15;5.10;;;;;;;-145.01;100.00;64805.59;5038305;28;20033;-55
2022/09/20 06:31:15;;;;;;;13.65;5.97;;;;;;;-145.01;100.00;64805.59;5037708;28;20116;-54
2022/09/20 06:33:57;;;;;;;16.10;4.90;;;;;;;-145.01;100.00;64805.59;5055414;28;20510;-54
2022/09/20 06:42:27;;;;;;;16.55;5.10;;;;;;;-145.01;100.00;64805.59;5062814;28;20043;-57
2022/09/20 06:44:53;;;;;;;8.63;4.43;;;;;;;-145.01;100.00;64805.59;5062415;28;20473;-54
2022/09/20 06:47:18;;;;;;;14.50;4.80;;;;;;;-145.01;100.00;64805.59;5053315;28;20124;-53
2022/09/20 06:49:45;;;;;;;13.73;4.43;;;;;;;-145.01;100.00;64805.59;5058540;28;20021;-54
2022/09/20 06:52:12;;;;;;;17.58;4.90;;;;;;;-145.01;100.00;64805.59;5057953;28;20127;-54
2022/09/20 06:54:42;;;;;;;17.60;4.80;;;;;;;-145.01;100.00;64805.59;5037210;28;20024;-54
2022/09/20 06:57:09;;;;;;;11.07;4.65;;;;;;;-145.01;100.00;64805.59;5063605;28;20474;-55
2022/09/20 06:59:34;;;;;;;13.40;4.90;;;;;;;-145.01;100.00;64805.59;5028225;28;20581;-55
2022/09/20 07:02:00;;;;;;;15.15;4.70;;;;;;;-145.01;100.00;64805.59;5053438;28;20031;-55
2022/09/20 07:04:25;;;;;;;10.38;4.10;;;;;;;-145.01;100.00;64805.59;5051272;28;20037;-56
2022/09/20 07:06:53;;;;;;;11.15;4.05;;;;;;;-145.01;100.00;64805.59;5058777;28;20531;-55
2022/09/20 07:09:18;;;;;;;9.80;3.80;;;;;;;-145.01;100.00;64805.59;5058899;28;20488;-53
2022/09/20 07:11:45;;;;;;;13.38;4.30;;;;;;;-145.01;100.00;64805.59;5053291;28;20076;-55
2022/09/20 07:14:10;;;;;;;12.77;4.50;;;;;;;-145.01;100.00;64805.59;5057010;28;20063;-55
2022/09/20 07:16:36;;;;;;;13.57;4.00;;;;;;;-145.01;100.00;64805.59;5064470;28;20028;-57
2022/09/20 07:19:04;;;;;;;11.63;4.07;;;;;;;-145.01;100.00;64805.59;5056735;28;20029;-56
2022/09/20 07:21:29;;;;;;;11.27;3.72;;;;;;;-145.01;100.00;64805.59;5058780;28;20028;-56
2022/09/20 07:23:56;;;;;;;10.68;4.00;;;;;;;-145.01;100.00;64805.59;5053199;28;20067;-56
2022/09/20 07:26:27;;;;;;;14.18;4.00;;;;;;;-145.01;100.00;64805.59;5057596;28;20085;-54
2022/09/20 07:28:53;;;;;;;10.00;4.20;;;;;;;-145.01;100.00;64805.59;5052625;28;20463;-55
2022/09/20 07:31:19;;;;;;;12.13;4.35;;;;;;;-145.01;100.00;64805.59;5062067;28;20111;-54
2022/09/20 07:33:44;;;;;;;9.55;4.10;;;;;;;-145.01;100.00;64805.59;5054457;28;20119;-54
2022/09/20 07:36:11;;;;;;;16.38;4.53;;;;;;;-145.01;100.00;64805.59;5060789;28;20419;-56
2022/09/20 07:38:37;;;;;;;8.50;4.40;;;;;;;-145.01;100.00;64805.59;5052859;28;20502;-63
2022/09/20 07:41:02;;;;;;;15.07;4.53;;;;;;;-145.01;100.00;64805.59;5052143;28;20036;-54
2022/09/20 07:43:28;;;;;;;15.60;4.45;;;;;;;-145.01;100.00;64805.59;5051087;28;20037;-53
2022/09/20 07:45:54;;;;;;;14.73;4.40;;;;;;;-145.01;100.00;64805.59;5052324;28;20017;-54
2022/09/20 07:48:29;;;;;;;12.68;4.90;;;;;;;-145.01;100.00;64805.59;5056779;28;20036;-54
2022/09/20 07:50:57;;;;;;;14.13;4.82;;;;;;;-145.01;100.00;64805.59;5051776;28;20025;-56
2022/09/20 07:53:23;;;;;;;16.02;4.60;;;;;;;-145.01;100.00;64805.59;5059303;28;20034;-57
2022/09/20 07:56:02;;;;;;;13.93;4.13;;;;;;;-145.01;100.00;64805.59;5034295;28;20423;-56
2022/09/20 07:58:28;;;;;;;12.60;3.80;;;;;;;-145.01;100.00;64805.59;5059224;28;20033;-56
2022/09/20 08:00:57;;;;;;;10.30;3.40;;;;;;;-145.01;100.00;64805.59;5056991;28;20059;-56
2022/09/20 08:03:23;;;;;;;12.15;3.88;;;;;;;-145.01;100.00;64805.59;5057137;28;20479;-56
2022/09/20 08:05:49;;;;;;;12.43;3.63;;;;;;;-145.01;100.00;64805.59;5050179;28;20047;-55
2022/09/20 08:08:18;;;;;;;13.77;3.60;;;;;;;-145.01;100.00;64805.59;5051752;28;20048;-54
2022/09/20 08:10:44;;;;;;;9.02;3.30;;;;;;;-145.01;100.00;64805.59;5058412;28;20471;-53
2022/09/20 08:13:11;;;;;;;10.43;3.55;;;;;;;-145.01;100.00;64805.59;5059582;28;20087;-54
2022/09/20 08:15:36;;;;;;;11.13;3.38;;;;;;;-145.01;100.00;64805.59;5057383;28;20020;-54
2022/09/20 08:18:02;;;;;;;15.50;3.38;;;;;;;-145.01;100.00;64805.59;5064597;28;20043;-54
2022/09/20 08:20:27;;;;;;;9.48;3.30;;;;;;;-145.01;100.00;64805.59;5053017;28;20033;-56
2022/09/20 08:22:54;;;;;;;8.57;3.30;;;;;;;-145.01;100.00;64805.59;5084175;28;20021;-57
2022/09/20 08:25:20;;;;;;;12.07;3.42;;;;;;;-145.01;100.00;64805.59;5057566;28;20121;-55
2022/09/20 08:27:51;;;;;;;11.43;3.30;;;;;;;-145.01;100.00;64805.59;5053645;28;20033;-53
2022/09/20 08:30:17;;;;;;;15.57;3.10;;;;;;;-145.01;100.00;64805.59;5059997;28;20025;-53
2022/09/20 08:32:42;;;;;;;15.15;3.50;;;;;;;-145.01;100.00;64805.59;5058141;28;20059;-55
2022/09/20 08:35:08;;;;;;;14.10;3.60;;;;;;;-145.01;100.00;64805.59;5051121;28;20029;-56
2022/09/20 08:37:34;;;;;;;8.45;3.40;;;;;;;-145.01;100.00;64805.59;5051248;28;20471;-57
2022/09/20 08:39:59;;;;;;;14.55;3.28;;;;;;;-145.01;100.00;64805.59;5055896;28;20025;-54
2022/09/20 08:42:30;;;;;;;13.23;3.53;;;;;;;-145.01;100.00;64805.59;5049923;28;20078;-55
2022/09/20 08:45:04;;;;;;;12.13;3.75;;;;;;;-145.01;100.00;64805.59;5053693;28;20388;-55
2022/09/20 08:47:31;;;;;;;16.35;3.17;;;;;;;-145.01;100.00;64805.59;5035453;28;20120;-55
2022/09/20 08:49:57;;;;;;;11.05;3.05;;;;;;;-145.01;100.00;64805.59;5049234;28;20028;-55
2022/09/20 08:52:29;;;;;;;12.60;2.88;;;;;;;-145.01;100.00;64805.59;5059738;28;20029;-56
2022/09/20 08:54:58;;;;;;;13.73;3.88;;;;;;;-145.01;100.00;64805.59;5049592;28;20491;-53
2022/09/20 08:57:24;;;;;;;14.15;3.72;;;;;;;-145.01;100.00;64805.59;5054475;28;20033;-56
2022/09/20 08:59:50;;;;;;;11.07;3.25;;;;;;;-145.01;100.00;64805.59;5049331;28;20491;-55
2022/09/20 09:02:17;;;;;;;15.50;3.17;;;;;;;-145.01;100.00;64805.59;5054674;28;20343;-56
2022/09/20 09:04:44;;;;;;;13.05;3.13;;;;;;;-145.01;100.00;64805.59;5052012;28;20040;-54
2022/09/20 09:07:11;;;;;;;16.17;3.58;;;;;;;-145.01;100.00;64805.59;5057317;28;20548;-55
2022/09/20 09:09:37;;;;;;;16.70;3.80;;;;;;;-145.01;100.00;64805.59;5035064;28;20202;-57
2022/09/20 09:12:03;;;;;;;17.30;5.00;;;;;;;-145.01;100.00;64805.59;5054948;28;20422;-55
2022/09/20 09:14:48;;;;;;;14.93;4.63;;;;;;;-145.01;100.00;64805.59;5052513;28;20032;-55
2022/09/20 09:17:27;;;;;;;20.60;5.43;;;;;;;-145.01;100.00;64805.59;5053271;28;20116;-54
2022/09/20 09:20:07;;;;;;;11.65;3.45;;;;;;;-145.01;100.00;64805.59;5053552;28;20033;-56
2022/09/20 09:22:40;;;;;;;13.20;4.30;;;;;;;-145.01;100.00;64805.59;5068872;28;20033;-56
2022/09/20 09:25:18;;;;;;;8.63;3.58;;;;;;;-145.01;100.00;64805.59;5050332;28;20476;-54
2022/09/20 09:27:56;;;;;;;15.13;4.07;;;;;;;-145.01;100.00;64805.59;5052207;28;20070;-54
2022/09/20 09:30:29;;;;;;;15.20;4.20;;;;;;;-145.01;100.00;64805.59;5053346;28;20380;-56
2022/09/20 09:33:24;;;;;;;13.15;4.82;;;;;;;-145.01;100.00;64805.59;5048921;28;20055;-56
2022/09/20 09:36:06;;;;;;;10.55;3.42;;;;;;;-145.01;100.00;64805.59;5050987;28;20083;-53
2022/09/20 09:38:35;;;;;;;8.40;2.90;;;;;;;-145.01;100.00;64805.59;5056081;28;20036;-56
2022/09/20 09:41:07;;;;;;;10.73;3.60;;;;;;;-145.01;100.00;64805.59;5054160;28;20593;-54
2022/09/20 09:43:36;;;;;;;11.07;3.30;;;;;;;-145.01;100.00;64805.59;5055320;28;20028;-52
2022/09/20 09:46:20;;;;;;;11.00;3.20;;;;;;;-145.01;100.00;64805.59;5054014;28;20052;-55
2022/09/20 09:48:48;;;;;;;14.57;3.83;;;;;;;-145.01;100.00;64805.59;5050559;28;20076;-54
2022/09/20 09:51:18;;;;;;;14.00;3.35;;;;;;;-145.01;100.00;64805.59;5052698;28;20500;-54
2022/09/20 09:53:45;;;;;;;19.45;4.25;;;;;;;-145.01;100.00;64805.59;5055291;28;20024;-54
2022/09/20 09:56:26;;;;;;;10.93;3.70;;;;;;;-145.01;100.00;64805.59;5038494;28;20087;-55
2022/09/20 09:59:09;;;;;;;15.00;3.65;;;;;;;-145.01;100.00;64805.59;5056824;28;20037;-54
2022/09/20 10:01:55;;;;;;;12.63;3.30;;;;;;;-145.01;100.00;64805.59;5052704;28;20390;-55
2022/09/20 10:04:26;;;;;;;12.15;4.10;;;;;;;-145.01;100.00;64805.59;5048989;28;20057;-54
2022/09/20 10:07:06;;;;;;;12.60;3.63;;;;;;;-145.01;100.00;64805.59;5051168;28;20051;-52
2022/09/20 10:09:51;;;;;;;18.48;4.18;;;;;;;-145.01;100.00;64805.59;5049905;28;20043;-55
2022/09/20 10:12:22;;;;;;;14.50;4.32;;;;;;;-145.01;100.00;64805.59;5056592;28;20028;-54
2022/09/20 10:14:52;;;;;;;14.15;3.67;;;;;;;-145.01;100.00;64805.59;5051985;28;20024;-55
2022/09/20 10:17:50;;;;;;;14.60;3.83;;;;;;;-145.01;100.00;64805.59;5054962;28;20040;-56
2022/09/20 10:20:34;;;;;;;13.38;3.40;;;;;;;-145.01;100.00;64805.59;5044456;28;20025;-55
2022/09/20 10:23:19;;;;;;;14.45;3.47;;;;;;;-145.01;100.00;64805.59;5052614;28;20574;-54
2022/09/20 10:26:12;;;;;;;11.05;4.15;;;;;;;-145.01;100.00;64805.59;5031508;28;20025;-55
2022/09/20 10:28:47;;;;;;;17.73;3.60;;;;;;;-145.01;100.00;64805.59;5054592;28;20384;-55
2022/09/20 10:31:27;;;;;;;13.07;3.30;;;;;;;-145.01;100.00;64805.59;5048852;28;20028;-55
2022/09/20 10:34:14;;;;;;;9.85;3.30;;;;;;;-145.01;100.00;64805.59;5050136;28;20025;-54
2022/09/20 10:36:52;;;;;;;10.30;3.40;;;;;;;-145.01;100.00;64805.59;5055733;28;20020;-55
2022/09/20 10:39:21;;;;;;;12.38;3.58;;;;;;;-145.01;100.00;64805.59;5047828;28;20040;-55
2022/09/20 10:44:51;;;;;;;8.32;3.00;;;;;;;-145.01;100.00;64805.59;5051754;28;20039;-56
2022/09/20 10:47:19;;;;;;;10.50;2.72;;;;;;;-145.01;100.00;64805.59;5053734;28;20051;-56
2022/09/20 10:50:06;;;;;;;11.30;4.88;;;;;;;-145.01;100.00;64805.59;5048484;28;20025;-57
2022/09/20 10:52:48;;;;;;;11.85;3.72;;;;;;;-145.01;100.00;64805.59;5055754;28;20102;-55
2022/09/20 10:55:39;;;;;;;14.25;2.95;;;;;;;-145.01;100.00;64805.59;5053563;28;20020;-54
2022/09/20 10:58:45;;;;;;;9.13;2.53;;;;;;;-145.01;100.00;64805.59;5047170;28;20178;-55
2022/09/20 11:01:23;;;;;;;7.22;2.90;;;;;;;-145.01;100.00;64805.59;5048579;28;20064;-55
2022/09/20 11:04:00;;;;;;;10.82;3.50;;;;;;;-145.01;100.00;64805.59;5052317;28;20079;-54
2022/09/20 11:06:48;;;;;;;9.30;4.28;;;;;;;-145.01;100.00;64805.59;5047365;28;20044;-55
2022/09/20 11:09:17;;;;;;;13.27;3.22;;;;;;;-145.01;100.00;64805.59;5047018;28;20029;-55
2022/09/20 11:11:48;;;;;;;14.25;3.22;;;;;;;-145.01;100.00;64805.59;5080224;28;20029;-55
2022/09/20 11:14:36;;;;;;;10.50;3.00;;;;;;;-145.01;100.00;64805.59;5064029;28;20383;-56
2022/09/20 11:17:13;;;;;;;11.07;3.33;;;;;;;-145.01;100.00;64805.59;5066107;28;20078;-56
2022/09/20 11:19:59;;;;;;;12.98;5.20;;;;;;;-145.01;100.00;64805.59;5058651;28;20090;-55
2022/09/20 11:22:33;;;;;;;11.73;4.78;;;;;;;-145.01;100.00;64805.59;5060723;28;20466;-55
2022/09/20 11:25:17;;;;;;;11.30;3.88;;;;;;;-145.01;100.00;64805.59;5026731;28;20059;-55
2022/09/20 11:27:58;;;;;;;11.63;4.05;;;;;;;-145.01;100.00;64805.59;5051941;28;20107;-55
2022/09/20 11:30:24;;;;;;;8.65;3.20;;;;;;;-145.01;100.00;64805.59;5045941;28;20536;-55
2022/09/20 11:32:56;;;;;;;7.75;2.90;;;;;;;-145.01;100.00;64805.59;5059560;28;20021;-55
2022/09/20 11:35:31;;;;;;;9.88;3.40;;;;;;;-145.01;100.00;64805.59;5062675;28;20449;-55
2022/09/20 11:38:06;;;;;;;8.98;4.72;;;;;;;-145.01;100.00;64805.59;5055330;28;20063;-55
2022/09/20 11:40:37;;;;;;;7.18;2.90;;;;;;;-145.01;100.00;64805.59;5051833;28;20032;-55
2022/09/20 11:43:05;;;;;;;13.63;3.03;;;;;;;-145.01;100.00;64805.59;5058344;28;20039;-55
2022/09/20 11:45:32;;;;;;;12.48;3.20;;;;;;;-145.01;100.00;64805.59;5051762;28;20159;-55
2022/09/20 11:48:20;;;;;;;10.75;3.05;;;;;;;-145.01;100.00;64805.59;5054414;28;20020;-55
2022/09/20 11:51:07;;;;;;;10.57;2.75;;;;;;;-145.01;100.00;64805.59;5054850;28;20036;-55
2022/09/20 11:53:48;;;;;;;9.88;2.83;;;;;;;-145.01;100.00;64805.59;5049689;28;20045;-54
2022/09/20 11:56:24;;;;;;;16.33;4.82;;;;;;;-145.01;100.00;64805.59;5050979;28;20044;-52
2022/09/20 11:58:54;;;;;;;9.98;2.85;;;;;;;-145.01;100.00;64805.59;5041220;28;20033;-54